Patuxent River, MD

7:56 AM EST on March 03, 2015 (GMT -0500)
Webster Naval Outlying Field | Change Station
CLOSE
Current Station
Airport
Location: St. Inigoes,
Elevation: 20 ft
Nearby Weather Stations
Active Advisory: Winter Weather Advisory Active Notice: Public Information Statement

Elev 20 ft 38.15 °N, 76.43 °W | Updated 16 hours ago

Overcast
Overcast
29 °F
Feels Like 29 °F
N
3
Wind Variable Wind from East
Gusts mph

Today
High -- | Low -- °F
--% Chance of Precip.
Yesterday
High -- | Low -- °F
Precip. -- in
6:35 AM 6:00 PM
Waxing Gibbous, 96% visible
Pressure 30.27 in
Visibility 10.0 miles
Clouds Clear
Dew Point 18 °F
Humidity 62%
Rainfall 0.00 in
Snow Depth Not available.
UV 2 out of 12
Pollen 2.70 out of 12
Air Quality Not available.
Flu Activity Not available.
METAR KNUI 022053Z AUTO VRB05KT 10SM CLR 08/M09 A3028 RMK AO2 SLP251 T00781094 53003

More Conditions Fewer Conditions

Pressure 30.27 in
Visibility 10.0 miles
Clouds Clear
Dew Point 18 °F
Humidity 62%
Rainfall 0.00 in
Snow Depth Not available.
UV 2 out of 12
Pollen 2.70 out of 12
Air Quality Not available.
Flu Activity Not available.
METAR KNUI 022053Z AUTO VRB05KT 10SM CLR 08/M09 A3028 RMK AO2 SLP251 T00781094 53003

More Conditions Fewer Conditions

10-Day Weather Forecast

Almanac

Astronomy

Mar. 03, 2015 Rise Set
Actual Time
Civil Twilight
Nautical Twilight
Astronomical Twilight
Moon
Length of Visible Light
Length of Day
Tomorrow will be .
, % of the Moon is Illuminated

Today's Extremes

State Highs State Lows

Community

WunderPhotos

Upload Photos

1,802,096 photos uploaded!

WunderBlogs® & News

Nearby

Air Quality

  Air Quality AQ Index Pollutant
Not available.

Snow Depth

Station Depth Elevation

Earthquake Activity

City Distance Mag. Time & Date
Minimum magnitude displayed is 2.5.

Coastal Water Temperatures

Place Temperature

Nearby Weather Stations

Winter Weather Advisory
Statement as of 4:54 AM EST on March 03, 2015

... Winter Weather Advisory remains in effect from noon today to
7 PM EST this evening...

* locations... north-central Virginia and southern Maryland.

* Hazard types... sleet and freezing rain.

* Accumulations... sleet accumulation of less than half
inch... along with a trace of ice.

* Timing... midday today into this evening.

* Impacts... snow and ice may stick to roadways. Traveling may be
hazardous.

* Winds... south 5 to 10 mph.

* Temperatures... upper 20s... rising into the 30s.

Precautionary/preparedness actions...

A Winter Weather Advisory means that periods of snow... sleet... or
freezing rain will cause travel difficulties. Be prepared for
slippery roads and limited visibilities... and use caution while
driving.



Jackson